createdAt,value
2017-10-02T00:01:06.019Z,18.97
2017-10-02T00:03:33.537Z,9.80
2017-10-02T00:06:01.184Z,16.33
2017-10-02T00:08:28.948Z,10.77
2017-10-02T00:10:56.511Z,8.87
2017-10-02T00:13:24.471Z,27.70
2017-10-02T00:15:52.237Z,21.90
2017-10-02T00:18:20.039Z,14.70
2017-10-02T00:20:47.772Z,17.03
2017-10-02T00:23:15.544Z,13.03
2017-10-02T00:25:43.060Z,14.63
2017-10-02T00:28:10.603Z,19.47
2017-10-02T00:30:38.171Z,21.60
2017-10-02T00:33:05.673Z,15.83
2017-10-02T00:35:33.402Z,25.60
2017-10-02T00:38:00.908Z,18.50
2017-10-02T00:40:28.648Z,10.90
2017-10-02T00:42:56.154Z,22.87
2017-10-02T00:45:23.864Z,13.43
2017-10-02T00:47:51.371Z,17.63
2017-10-02T00:50:19.097Z,17.20
2017-10-02T00:52:46.605Z,11.17
2017-10-02T00:55:14.138Z,18.00
2017-10-02T00:57:42.408Z,11.83
2017-10-02T01:00:09.919Z,18.50
2017-10-02T01:02:37.600Z,15.80
2017-10-02T01:05:05.132Z,9.77
2017-10-02T01:07:32.816Z,9.10
2017-10-02T01:10:00.325Z,11.00
2017-10-02T01:12:28.293Z,16.63
2017-10-02T01:14:55.816Z,11.80
2017-10-02T01:17:23.342Z,10.70
2017-10-02T01:19:51.005Z,7.40
2017-10-02T01:22:18.783Z,19.10
2017-10-02T01:24:46.295Z,17.93
2017-10-02T01:27:14.223Z,17.37
2017-10-02T01:29:41.771Z,9.90
2017-10-02T01:32:09.343Z,12.47
2017-10-02T01:34:36.962Z,14.63
2017-10-02T01:37:04.472Z,10.17
2017-10-02T01:39:31.980Z,7.40
2017-10-02T01:41:59.663Z,12.40
2017-10-02T01:44:27.172Z,10.67
2017-10-02T01:46:54.840Z,10.37
2017-10-02T01:49:22.643Z,8.10
2017-10-02T01:51:50.188Z,7.53
2017-10-02T01:54:17.864Z,7.10
2017-10-02T01:56:45.637Z,14.50
2017-10-02T01:59:13.391Z,11.60
2017-10-02T02:01:41.160Z,11.57
2017-10-02T02:04:08.679Z,12.03
2017-10-02T02:06:36.184Z,9.40
2017-10-02T02:09:03.731Z,10.00
2017-10-02T02:11:31.299Z,11.00
2017-10-02T02:13:58.928Z,17.50
2017-10-02T02:16:26.507Z,12.20
2017-10-02T02:18:54.026Z,8.13
2017-10-02T02:21:21.728Z,17.67
2017-10-02T02:23:49.492Z,15.47
2017-10-02T02:26:17.260Z,21.33
2017-10-02T02:28:45.203Z,22.23
2017-10-02T02:31:12.684Z,8.93
2017-10-02T02:33:40.671Z,6.43
2017-10-02T02:36:08.165Z,13.97
2017-10-02T02:38:35.672Z,12.73
2017-10-02T02:41:04.201Z,12.00
2017-10-02T02:43:31.890Z,9.00
2017-10-02T02:45:59.501Z,14.10
2017-10-02T02:48:27.129Z,15.23
2017-10-02T02:50:54.640Z,11.80
2017-10-02T02:53:22.159Z,20.13
2017-10-02T02:55:49.785Z,9.37
2017-10-02T02:58:17.293Z,13.00
2017-10-02T03:00:44.799Z,8.97
2017-10-02T03:03:12.493Z,10.40
2017-10-02T03:05:40.008Z,15.40
2017-10-02T03:08:07.707Z,14.67
2017-10-02T03:10:35.252Z,10.43
2017-10-02T03:13:02.871Z,8.30
2017-10-02T03:15:30.695Z,8.93
2017-10-02T03:17:58.198Z,11.17
2017-10-02T03:20:25.700Z,5.87
2017-10-02T03:22:53.207Z,15.70
2017-10-02T03:25:21.496Z,8.10
2017-10-02T03:27:49.008Z,8.90
2017-10-02T03:30:16.666Z,7.33
2017-10-02T03:32:44.432Z,11.37
2017-10-02T03:35:11.943Z,10.67
2017-10-02T03:37:39.660Z,10.00
2017-10-02T03:40:07.417Z,12.37
2017-10-02T03:42:35.181Z,16.60
2017-10-02T03:45:02.686Z,6.60
2017-10-02T03:47:30.361Z,10.90
2017-10-02T03:49:57.872Z,10.37
2017-10-02T03:52:25.610Z,6.30
2017-10-02T03:54:53.228Z,9.70
2017-10-02T03:57:20.739Z,15.30
2017-10-02T03:59:49.015Z,14.43
2017-10-02T04:02:16.643Z,11.10
2017-10-02T04:04:44.348Z,9.40
2017-10-02T04:07:11.880Z,17.10
2017-10-02T04:09:39.388Z,22.10
2017-10-02T04:12:07.694Z,13.80
2017-10-02T04:14:35.204Z,5.67
2017-10-02T04:17:02.943Z,9.53
2017-10-02T04:19:30.440Z,13.07
2017-10-02T04:21:58.136Z,15.50
2017-10-02T04:24:25.632Z,7.90
2017-10-02T04:26:53.192Z,11.00
2017-10-02T04:29:20.693Z,18.20
2017-10-02T04:31:48.489Z,12.30
2017-10-02T04:34:16.048Z,9.93
2017-10-02T04:36:43.560Z,18.83
2017-10-02T04:39:11.275Z,10.33
2017-10-02T04:41:38.780Z,9.90
2017-10-02T04:44:07.190Z,12.90
2017-10-02T04:46:34.744Z,11.67
2017-10-02T04:49:02.332Z,13.50
2017-10-02T04:51:29.840Z,10.87
2017-10-02T04:53:57.549Z,12.93
2017-10-02T04:56:25.074Z,13.43
2017-10-02T04:58:52.580Z,7.53
2017-10-02T05:01:20.225Z,18.37
2017-10-02T05:03:47.983Z,11.00
2017-10-02T05:06:15.496Z,17.87
2017-10-02T05:08:43.011Z,11.83
2017-10-02T05:11:11.218Z,13.97
2017-10-02T05:13:38.723Z,12.07
2017-10-02T05:16:06.242Z,15.37
2017-10-02T05:18:33.955Z,11.47
2017-10-02T05:21:01.719Z,13.23
2017-10-02T05:23:29.231Z,11.20
2017-10-02T05:25:56.880Z,10.97
2017-10-02T05:28:24.391Z,10.07
2017-10-02T05:30:51.901Z,17.67
2017-10-02T05:33:19.400Z,15.20
2017-10-02T05:35:46.912Z,21.40
2017-10-02T05:38:15.191Z,17.17
2017-10-02T05:40:42.720Z,19.60
2017-10-02T05:43:11.570Z,16.30
2017-10-02T05:45:39.417Z,11.53
2017-10-02T05:48:06.979Z,12.47
2017-10-02T05:50:34.537Z,15.50
2017-10-02T05:53:02.105Z,9.23
2017-10-02T05:55:29.678Z,15.80
2017-10-02T05:57:57.205Z,15.53
2017-10-02T06:00:25.032Z,18.07
2017-10-02T06:02:52.538Z,16.70
2017-10-02T06:05:20.060Z,25.90
2017-10-02T06:07:47.563Z,23.83
2017-10-02T06:10:15.088Z,18.60
2017-10-02T06:12:42.631Z,26.07
2017-10-02T06:15:10.422Z,16.27
2017-10-02T06:17:38.127Z,13.47
2017-10-02T06:20:05.707Z,16.77
2017-10-02T06:22:33.914Z,17.93
2017-10-02T06:25:01.415Z,9.80
2017-10-02T06:27:28.920Z,16.30
2017-10-02T06:29:56.644Z,27.90
2017-10-02T06:32:24.149Z,15.20
2017-10-02T06:34:51.664Z,12.13
2017-10-02T06:37:19.320Z,16.47
2017-10-02T06:39:46.829Z,12.40
2017-10-02T06:42:14.352Z,15.13
2017-10-02T06:44:42.183Z,15.93
2017-10-02T06:47:10.772Z,15.43
2017-10-02T06:49:38.286Z,16.73
2017-10-02T06:52:06.682Z,20.93
2017-10-02T06:54:34.255Z,18.03
2017-10-02T06:57:02.276Z,18.17
2017-10-02T06:59:30.557Z,13.57
2017-10-02T07:01:59.116Z,11.17
2017-10-02T07:04:26.871Z,8.67
2017-10-02T07:06:54.436Z,12.67
2017-10-02T07:09:22.201Z,12.00
2017-10-02T07:11:49.848Z,11.87
2017-10-02T07:14:17.359Z,10.67
2017-10-02T07:16:45.094Z,8.50
2017-10-02T07:19:12.760Z,14.83
2017-10-02T07:21:40.633Z,8.07
2017-10-02T07:24:08.254Z,7.30
2017-10-02T07:26:35.835Z,7.00
2017-10-02T07:29:03.340Z,7.70
2017-10-02T07:31:30.869Z,11.50
2017-10-02T07:33:59.426Z,6.37
2017-10-02T07:36:26.941Z,8.10
2017-10-02T07:38:54.447Z,8.20
2017-10-02T07:41:21.956Z,4.93
2017-10-02T07:43:49.718Z,17.40
2017-10-02T07:46:18.138Z,7.50
2017-10-02T07:48:45.701Z,9.87
2017-10-02T07:51:13.205Z,8.47
2017-10-02T07:53:41.236Z,12.07
2017-10-02T07:56:08.746Z,6.83
2017-10-02T07:58:36.265Z,7.23
2017-10-02T08:01:03.772Z,8.67
2017-10-02T08:03:31.375Z,7.73
2017-10-02T08:05:58.869Z,6.03
2017-10-02T08:08:26.380Z,9.33
2017-10-02T08:10:53.891Z,15.20
2017-10-02T08:13:22.103Z,6.17
2017-10-02T08:15:49.620Z,8.20
2017-10-02T08:18:17.279Z,9.23
2017-10-02T08:20:44.793Z,5.13
2017-10-02T08:23:12.295Z,5.57
2017-10-02T08:25:40.000Z,4.60
2017-10-02T08:28:07.505Z,7.47
2017-10-02T08:30:35.015Z,3.97
2017-10-02T08:33:02.685Z,5.07
2017-10-02T08:35:30.256Z,5.13
2017-10-02T08:37:57.868Z,5.00
2017-10-02T08:40:25.391Z,4.60
2017-10-02T08:42:53.088Z,8.93
2017-10-02T08:45:21.058Z,5.03
2017-10-02T08:47:48.556Z,6.67
2017-10-02T08:50:16.063Z,4.40
2017-10-02T08:52:43.672Z,4.10
2017-10-02T08:55:11.190Z,5.60
2017-10-02T08:57:38.780Z,4.90
2017-10-02T09:00:06.285Z,5.43
2017-10-02T09:02:33.976Z,6.23
2017-10-02T09:05:01.495Z,7.37
2017-10-02T09:07:29.133Z,9.20
2017-10-02T09:09:56.679Z,4.40
2017-10-02T09:12:24.618Z,4.53
2017-10-02T09:14:52.109Z,4.70
2017-10-02T09:17:19.709Z,8.03
2017-10-02T09:19:47.398Z,5.73
2017-10-02T09:22:15.191Z,7.17
2017-10-02T09:24:42.691Z,5.13
2017-10-02T09:27:10.413Z,7.40
2017-10-02T09:29:37.923Z,12.30
2017-10-02T09:32:05.444Z,11.00
2017-10-02T09:34:33.037Z,9.10
2017-10-02T09:37:00.844Z,10.40
2017-10-02T09:39:28.786Z,10.93
2017-10-02T09:41:56.368Z,7.53
2017-10-02T09:44:23.876Z,12.10
2017-10-02T09:46:51.592Z,9.17
2017-10-02T09:49:19.352Z,15.83
2017-10-02T09:51:47.118Z,11.33
2017-10-02T09:54:14.663Z,16.70
2017-10-02T09:56:42.307Z,13.03
2017-10-02T09:59:10.101Z,9.83
2017-10-02T10:01:37.599Z,14.40
2017-10-02T10:04:05.115Z,9.83
2017-10-02T10:06:32.822Z,9.40
2017-10-02T10:09:00.337Z,16.80
2017-10-02T10:11:27.841Z,9.37
2017-10-02T10:13:56.392Z,10.10
2017-10-02T10:16:25.068Z,17.77
2017-10-02T10:18:52.592Z,12.73
2017-10-02T10:21:20.100Z,15.50
2017-10-02T10:23:47.615Z,12.40
2017-10-02T10:26:15.158Z,13.43
2017-10-02T10:28:42.664Z,13.27
2017-10-02T10:31:10.412Z,12.57
2017-10-02T10:33:37.952Z,19.57
2017-10-02T10:36:05.478Z,16.33
2017-10-02T10:38:33.772Z,18.17
2017-10-02T10:41:01.491Z,17.10
2017-10-02T10:43:29.017Z,21.17
2017-10-02T10:45:57.611Z,15.83
2017-10-02T10:48:26.001Z,17.77
2017-10-02T10:50:53.758Z,16.30
2017-10-02T10:53:21.264Z,17.67
2017-10-02T10:55:48.794Z,22.37
2017-10-02T10:58:16.304Z,16.97
2017-10-02T11:00:43.824Z,16.70
2017-10-02T11:03:11.341Z,18.30
2017-10-02T11:05:39.123Z,12.97
2017-10-02T11:08:06.664Z,24.00
2017-10-02T11:10:34.173Z,27.07
2017-10-02T11:13:01.757Z,15.27
2017-10-02T11:15:29.458Z,22.67
2017-10-02T11:17:56.997Z,11.77
2017-10-02T11:20:24.764Z,22.70
2017-10-02T11:22:52.270Z,14.37
2017-10-02T11:25:19.780Z,20.73
2017-10-02T11:27:47.292Z,18.73
2017-10-02T11:30:14.900Z,21.83
2017-10-02T11:32:42.403Z,22.67
2017-10-02T11:35:09.924Z,27.90
2017-10-02T11:37:37.557Z,20.33
2017-10-02T11:40:05.347Z,14.33
2017-10-02T11:42:32.843Z,24.80
2017-10-02T11:45:00.537Z,22.07
2017-10-02T11:47:28.049Z,27.47
2017-10-02T11:49:55.808Z,35.83
2017-10-02T11:52:23.315Z,21.70
2017-10-02T11:54:50.825Z,23.87
2017-10-02T11:57:18.456Z,21.23
2017-10-02T11:59:45.987Z,31.10
2017-10-02T12:02:13.681Z,23.80
2017-10-02T12:04:41.191Z,30.63
2017-10-02T12:07:08.893Z,34.50
2017-10-02T12:09:36.409Z,25.47
2017-10-02T12:12:03.924Z,25.43
2017-10-02T12:14:31.574Z,41.30
2017-10-02T12:16:59.092Z,23.00
2017-10-02T12:19:27.092Z,28.97
2017-10-02T12:21:54.606Z,27.43
2017-10-02T12:24:22.194Z,35.87
2017-10-02T12:26:49.735Z,32.60
2017-10-02T12:29:17.260Z,32.63
2017-10-02T12:31:44.991Z,29.67
2017-10-02T12:34:12.503Z,31.47
2017-10-02T12:36:40.020Z,26.80
2017-10-02T12:39:07.672Z,44.37
2017-10-02T12:41:35.175Z,26.37
2017-10-02T12:44:02.716Z,30.40
2017-10-02T12:46:30.216Z,35.53
2017-10-02T12:48:57.727Z,30.30
2017-10-02T12:51:25.268Z,27.33
2017-10-02T12:53:52.776Z,29.73
2017-10-02T12:56:20.288Z,44.27
2017-10-02T12:58:47.913Z,44.20
2017-10-02T13:01:15.428Z,31.23
2017-10-02T13:03:42.948Z,33.83
2017-10-02T13:06:10.592Z,36.03
2017-10-02T13:08:38.148Z,26.77
2017-10-02T13:11:05.795Z,42.60
2017-10-02T13:13:33.323Z,30.63
2017-10-02T13:16:01.065Z,21.80
2017-10-02T13:18:28.837Z,25.63
2017-10-02T13:20:58.137Z,36.60
2017-10-02T13:23:25.855Z,28.13
2017-10-02T13:25:53.364Z,27.53
2017-10-02T13:28:21.111Z,37.30
2017-10-02T13:30:48.634Z,48.30
2017-10-02T13:33:16.141Z,27.83
2017-10-02T13:35:43.664Z,37.43
2017-10-02T13:38:11.217Z,36.33
2017-10-02T13:40:38.844Z,32.60
2017-10-02T13:43:07.147Z,43.83
2017-10-02T13:45:34.667Z,34.27
2017-10-02T13:48:03.245Z,32.03
2017-10-02T13:50:30.992Z,30.73
2017-10-02T13:52:58.503Z,30.60
2017-10-02T13:55:26.176Z,32.50
2017-10-02T13:57:53.690Z,30.13
2017-10-02T14:00:21.465Z,41.93
2017-10-02T14:02:49.173Z,25.17
2017-10-02T14:05:16.662Z,38.73
2017-10-02T14:07:44.170Z,30.80
2017-10-02T14:10:11.685Z,30.73
2017-10-02T14:12:39.951Z,39.40
2017-10-02T14:15:07.536Z,39.67
2017-10-02T14:17:35.800Z,38.70
2017-10-02T14:20:04.100Z,42.73
2017-10-02T14:22:32.017Z,43.40
2017-10-02T14:24:59.708Z,44.33
2017-10-02T14:27:27.427Z,33.70
2017-10-02T14:29:54.944Z,38.00
2017-10-02T14:32:22.460Z,53.03
2017-10-02T14:34:50.120Z,40.47
2017-10-02T14:37:17.716Z,33.77
2017-10-02T14:39:45.993Z,37.77
2017-10-02T14:42:13.673Z,33.67
2017-10-02T14:44:41.191Z,51.07
2017-10-02T14:47:09.045Z,29.27
2017-10-02T14:49:36.656Z,45.50
2017-10-02T14:52:04.190Z,48.43
2017-10-02T14:54:31.919Z,43.17
2017-10-02T14:56:59.423Z,44.67
2017-10-02T14:59:27.130Z,31.80
2017-10-02T15:01:54.905Z,36.50
2017-10-02T15:04:22.665Z,48.37
2017-10-02T15:06:50.280Z,35.97
2017-10-02T15:09:17.937Z,31.60
2017-10-02T15:11:45.444Z,47.73
2017-10-02T15:14:13.105Z,36.73
2017-10-02T15:16:40.873Z,43.93
2017-10-02T15:19:08.638Z,36.20
2017-10-02T15:21:36.150Z,35.50
2017-10-02T15:24:03.815Z,50.90
2017-10-02T15:26:31.314Z,31.60
2017-10-02T15:28:58.843Z,39.63
2017-10-02T15:31:26.336Z,46.93
2017-10-02T15:33:53.865Z,42.93
2017-10-02T15:36:21.367Z,43.97
2017-10-02T15:38:49.779Z,37.00
2017-10-02T15:41:17.278Z,35.40
2017-10-02T15:43:45.118Z,29.83
2017-10-02T15:46:12.887Z,31.53
2017-10-02T15:48:40.600Z,34.43
2017-10-02T15:51:08.912Z,43.90
2017-10-02T15:53:36.497Z,31.23
2017-10-02T15:56:04.136Z,31.63
2017-10-02T15:58:31.747Z,48.30
2017-10-02T16:00:59.353Z,37.23
2017-10-02T16:03:27.142Z,43.53
2017-10-02T16:05:54.879Z,52.73
2017-10-02T16:08:22.384Z,41.33
2017-10-02T16:10:50.132Z,37.90
2017-10-02T16:13:17.656Z,42.10
2017-10-02T16:15:45.454Z,36.30
2017-10-02T16:18:13.120Z,39.63
2017-10-02T16:20:40.640Z,35.90
2017-10-02T16:23:08.356Z,40.33
2017-10-02T16:25:36.061Z,40.63
2017-10-02T16:28:03.558Z,43.40
2017-10-02T16:30:31.089Z,41.70
2017-10-02T16:32:58.595Z,38.53
2017-10-02T16:35:27.159Z,44.07
2017-10-02T16:37:54.660Z,43.93
2017-10-02T16:40:22.387Z,41.47
2017-10-02T16:42:50.785Z,38.60
2017-10-02T16:45:18.288Z,38.40
2017-10-02T16:47:45.800Z,38.50
2017-10-02T16:50:14.111Z,25.27
2017-10-02T16:52:41.803Z,33.87
2017-10-02T16:55:09.313Z,33.83
2017-10-02T16:57:36.853Z,49.07
2017-10-02T17:00:05.215Z,38.43
2017-10-02T17:02:33.080Z,37.83
2017-10-02T17:05:00.603Z,54.47
2017-10-02T17:07:28.112Z,54.83
2017-10-02T17:09:55.734Z,42.73
2017-10-02T17:12:23.273Z,39.40
2017-10-02T17:14:50.800Z,31.40
2017-10-02T17:17:18.311Z,20.40
2017-10-02T17:19:45.973Z,36.33
2017-10-02T17:22:13.488Z,32.43
2017-10-02T17:24:41.020Z,36.90
2017-10-02T17:27:09.564Z,34.63
2017-10-02T17:29:37.089Z,30.23
2017-10-02T17:32:04.780Z,32.87
2017-10-02T17:34:32.275Z,27.77
2017-10-02T17:36:59.980Z,29.77
2017-10-02T17:39:27.496Z,52.57
2017-10-02T17:41:55.025Z,36.90
2017-10-02T17:44:22.532Z,34.33
2017-10-02T17:46:50.045Z,40.20
2017-10-02T17:49:18.119Z,49.63
2017-10-02T17:51:45.676Z,37.53
2017-10-02T17:54:13.201Z,37.53
2017-10-02T17:56:40.696Z,33.30
2017-10-02T17:59:08.339Z,44.67
2017-10-02T18:01:36.156Z,48.67
2017-10-02T18:04:03.665Z,38.27
2017-10-02T18:06:31.200Z,33.73
2017-10-02T18:08:58.829Z,34.40
2017-10-02T18:11:26.554Z,37.83
2017-10-02T18:13:54.319Z,37.63
2017-10-02T18:16:23.353Z,37.77
2017-10-02T18:18:50.963Z,39.17
2017-10-02T18:21:18.511Z,30.70
2017-10-02T18:23:46.011Z,21.37
2017-10-02T18:26:13.719Z,39.33
2017-10-02T18:28:41.229Z,45.80
2017-10-02T18:31:08.868Z,35.43
2017-10-02T18:33:36.727Z,38.90
2017-10-02T18:36:04.497Z,33.63
2017-10-02T18:38:32.023Z,36.73
2017-10-02T18:40:59.707Z,48.03
2017-10-02T18:43:27.220Z,22.90
2017-10-02T18:45:54.737Z,34.77
2017-10-02T18:48:22.254Z,30.43
2017-10-02T18:50:50.389Z,35.20
2017-10-02T18:53:19.245Z,43.67
2017-10-02T18:55:47.279Z,37.00
2017-10-02T18:58:14.980Z,29.13
2017-10-02T19:00:42.624Z,30.50
2017-10-02T19:03:10.171Z,31.60
2017-10-02T19:05:37.675Z,44.53
2017-10-02T19:08:05.345Z,44.13
2017-10-02T19:10:32.871Z,32.20
2017-10-02T19:13:00.647Z,34.13
2017-10-02T19:15:28.405Z,38.60
2017-10-02T19:17:55.920Z,36.03
2017-10-02T19:20:23.429Z,45.00
2017-10-02T19:22:51.079Z,39.57
2017-10-02T19:25:18.580Z,43.63
2017-10-02T19:27:47.198Z,38.80
2017-10-02T19:30:14.700Z,48.80
2017-10-02T19:32:42.327Z,34.40
2017-10-02T19:35:09.901Z,32.10
2017-10-02T19:37:37.496Z,29.17
2017-10-02T19:40:06.631Z,30.70
2017-10-02T19:42:34.142Z,38.73
2017-10-02T19:45:01.978Z,27.23
2017-10-02T19:47:29.484Z,25.67
2017-10-02T19:49:57.751Z,17.97
2017-10-02T19:52:25.467Z,51.63
2017-10-02T19:54:54.613Z,30.30
2017-10-02T19:57:23.006Z,41.67
2017-10-02T19:59:51.261Z,31.20
2017-10-02T20:02:19.911Z,24.57
2017-10-02T20:04:47.532Z,30.80
2017-10-02T20:07:15.132Z,36.30
2017-10-02T20:09:42.643Z,34.03
2017-10-02T20:12:10.167Z,23.63
2017-10-02T20:14:37.684Z,23.67
2017-10-02T20:17:06.886Z,28.07
2017-10-02T20:19:34.430Z,27.33
2017-10-02T20:22:02.013Z,29.30
2017-10-02T20:24:29.532Z,27.70
2017-10-02T20:27:00.229Z,26.00
2017-10-02T20:29:27.739Z,28.80
2017-10-02T20:31:55.759Z,23.00
2017-10-02T20:34:24.889Z,15.97
2017-10-02T20:36:52.438Z,27.13
2017-10-02T20:39:19.959Z,34.60
2017-10-02T20:41:48.304Z,38.07
2017-10-02T20:44:15.855Z,23.53
2017-10-02T20:46:43.643Z,33.50
2017-10-02T20:49:11.178Z,24.57
2017-10-02T20:51:38.896Z,22.77
2017-10-02T20:54:06.428Z,32.53
2017-10-02T20:56:34.080Z,24.93
2017-10-02T20:59:01.882Z,26.07
2017-10-02T21:01:29.428Z,23.63
2017-10-02T21:03:56.961Z,27.77
2017-10-02T21:06:24.459Z,24.50
2017-10-02T21:08:52.162Z,31.37
2017-10-02T21:11:19.718Z,42.50
2017-10-02T21:13:47.228Z,24.20
2017-10-02T21:16:14.753Z,22.83
2017-10-02T21:18:42.431Z,37.70
2017-10-02T21:21:10.183Z,28.17
2017-10-02T21:23:37.694Z,40.73
2017-10-02T21:26:05.196Z,34.70
2017-10-02T21:28:32.691Z,17.00
2017-10-02T21:31:00.976Z,30.87
2017-10-02T21:33:28.682Z,33.70
2017-10-02T21:35:56.299Z,28.97
2017-10-02T21:38:24.572Z,18.40
2017-10-02T21:40:52.272Z,40.57
2017-10-02T21:43:19.780Z,26.13
2017-10-02T21:45:47.568Z,26.43
2017-10-02T21:48:15.064Z,37.30
2017-10-02T21:50:42.580Z,44.20
2017-10-02T21:53:11.119Z,25.60
2017-10-02T21:55:38.629Z,24.10
2017-10-02T21:58:06.261Z,17.50
2017-10-02T22:00:34.705Z,33.33
2017-10-02T22:03:02.219Z,28.77
2017-10-02T22:05:29.738Z,38.93
2017-10-02T22:07:57.697Z,24.90
2017-10-02T22:10:25.194Z,49.20
2017-10-02T22:12:52.912Z,36.23
2017-10-02T22:15:20.553Z,40.50
2017-10-02T22:17:48.112Z,36.87
2017-10-02T22:20:15.653Z,31.23
2017-10-02T22:22:43.165Z,24.53
2017-10-02T22:25:10.683Z,32.13
2017-10-02T22:27:38.984Z,43.20
2017-10-02T22:30:06.956Z,38.63
2017-10-02T22:32:34.528Z,25.23
2017-10-02T22:35:02.187Z,45.23
2017-10-02T22:37:29.934Z,23.47
2017-10-02T22:39:57.438Z,23.40
2017-10-02T22:42:25.133Z,18.00
2017-10-02T22:44:52.642Z,19.00
2017-10-02T22:47:20.356Z,31.60
2017-10-02T22:49:47.868Z,14.83
2017-10-02T22:52:15.572Z,39.73
2017-10-02T22:54:43.092Z,22.97
2017-10-02T22:57:10.814Z,21.80
2017-10-02T22:59:39.042Z,41.53
2017-10-02T23:02:07.445Z,21.63
2017-10-02T23:04:35.023Z,26.13
2017-10-02T23:07:02.793Z,22.23
2017-10-02T23:09:30.735Z,40.77
2017-10-02T23:11:58.498Z,27.77
2017-10-02T23:14:26.231Z,27.60
2017-10-02T23:16:54.768Z,18.63
2017-10-02T23:19:22.272Z,30.73
2017-10-02T23:21:49.993Z,28.90
2017-10-02T23:24:17.491Z,26.43
2017-10-02T23:26:45.203Z,26.30
2017-10-02T23:29:12.721Z,26.10
2017-10-02T23:31:40.299Z,33.13
2017-10-02T23:34:07.900Z,28.43
2017-10-02T23:36:35.676Z,31.00
2017-10-02T23:39:03.593Z,33.13
2017-10-02T23:41:31.301Z,32.40
2017-10-02T23:43:58.791Z,33.77
2017-10-02T23:46:26.699Z,25.87
2017-10-02T23:48:55.195Z,28.83
2017-10-02T23:51:22.856Z,20.03
2017-10-02T23:53:50.615Z,29.03
2017-10-02T23:56:18.373Z,35.70
2017-10-02T23:58:46.414Z,16.17
